Time;durP1;ratioP1;P1;durP2;ratioP2;P2;SDS_P1;SDS_P2;PMS_P1;PMS_P2;Temp;Humidity;BMP_temperature;BMP_pressure;BME280_temperature;BME280_humidity;BME280_pressure;Samples;Min_cycle;Max_cycle;Signal;HPM_P1;HPM_P2
2022/05/16 00:00:09;;;;;;;4.43;2.60;;;;;;;;;;5093863;28;20415;-77
2022/05/16 00:02:35;;;;;;;3.03;2.30;;;;;;;;;;5094657;28;20410;-77
2022/05/16 00:05:01;;;;;;;6.60;2.40;;;;;;;;;;5092408;28;20465;-77
2022/05/16 00:07:27;;;;;;;6.30;3.10;;;;;;;;;;5094511;28;20862;-77
2022/05/16 00:09:53;;;;;;;6.07;2.63;;;;;;;;;;5094657;28;20415;-77
2022/05/16 00:12:19;;;;;;;4.90;2.53;;;;;;;;;;5094522;28;20415;-77
2022/05/16 00:14:46;;;;;;;6.53;2.43;;;;;;;;;;5092750;28;20515;-77
2022/05/16 00:17:13;;;;;;;3.20;2.03;;;;;;;;;;5093125;28;20418;-77
2022/05/16 00:19:39;;;;;;;5.13;2.50;;;;;;;;;;5094431;28;20503;-77
2022/05/16 00:22:06;;;;;;;4.70;2.90;;;;;;;;;;5094361;28;20406;-77
2022/05/16 00:24:33;;;;;;;3.90;2.20;;;;;;;;;;5093761;28;20854;-77
2022/05/16 00:26:59;;;;;;;4.90;2.40;;;;;;;;;;5094089;28;20409;-77
2022/05/16 00:29:26;;;;;;;3.87;2.60;;;;;;;;;;5094266;28;20384;-77
2022/05/16 00:31:54;;;;;;;4.23;2.70;;;;;;;;;;5094090;28;20398;-77
2022/05/16 00:34:20;;;;;;;4.80;2.60;;;;;;;;;;5094170;28;20417;-77
2022/05/16 00:36:49;;;;;;;7.43;2.80;;;;;;;;;;5094237;28;20498;-77
2022/05/16 00:39:16;;;;;;;3.03;2.50;;;;;;;;;;5094035;28;20415;-77
2022/05/16 00:41:42;;;;;;;4.80;3.30;;;;;;;;;;5092761;28;20505;-77
2022/05/16 00:44:08;;;;;;;3.97;2.73;;;;;;;;;;5093711;28;20546;-78
2022/05/16 00:46:35;;;;;;;6.47;3.00;;;;;;;;;;5093928;28;20418;-77
2022/05/16 00:49:02;;;;;;;9.07;3.03;;;;;;;;;;5092531;28;20407;-77
2022/05/16 00:51:28;;;;;;;7.10;3.70;;;;;;;;;;5093964;28;20382;-77
2022/05/16 00:53:57;;;;;;;4.90;3.17;;;;;;;;;;5093454;28;20934;-77
2022/05/16 00:56:24;;;;;;;6.10;3.13;;;;;;;;;;5093714;28;20493;-77
2022/05/16 00:58:51;;;;;;;4.30;3.33;;;;;;;;;;5093713;28;20925;-77
2022/05/16 01:06:48;;;;;;;9.10;3.70;;;;;;;;;;5093755;28;20410;-77
2022/05/16 01:09:14;;;;;;;5.13;3.03;;;;;;;;;;5093430;28;20414;-77
2022/05/16 01:11:40;;;;;;;4.37;3.13;;;;;;;;;;5092443;28;20407;-76
2022/05/16 01:14:06;;;;;;;7.57;3.30;;;;;;;;;;5093146;28;20845;-76
2022/05/16 01:16:32;;;;;;;7.93;2.93;;;;;;;;;;5092731;28;20898;-77
2022/05/16 01:18:59;;;;;;;6.67;3.50;;;;;;;;;;5093266;28;20406;-78
2022/05/16 01:21:28;;;;;;;4.30;2.70;;;;;;;;;;5093188;28;20419;-77
2022/05/16 01:23:56;;;;;;;4.23;3.40;;;;;;;;;;5092758;28;20472;-77
2022/05/16 01:26:24;;;;;;;8.10;3.73;;;;;;;;;;5093206;28;20399;-77
2022/05/16 01:28:51;;;;;;;6.10;3.83;;;;;;;;;;5091915;28;20925;-77
2022/05/16 01:31:17;;;;;;;7.50;3.83;;;;;;;;;;5093032;28;20444;-77
2022/05/16 01:33:43;;;;;;;6.13;3.57;;;;;;;;;;5092479;28;20457;-77
2022/05/16 01:36:10;;;;;;;4.27;3.00;;;;;;;;;;5093050;28;20446;-77
2022/05/16 01:38:36;;;;;;;6.73;3.20;;;;;;;;;;5091864;28;20766;-78
2022/05/16 01:41:04;;;;;;;6.70;3.23;;;;;;;;;;5093012;28;20755;-77
2022/05/16 01:43:31;;;;;;;3.37;2.67;;;;;;;;;;5092327;28;20448;-77
2022/05/16 01:45:57;;;;;;;6.60;3.10;;;;;;;;;;5092917;28;20441;-77
2022/05/16 01:48:24;;;;;;;5.17;2.70;;;;;;;;;;5092923;28;20381;-77
2022/05/16 01:50:51;;;;;;;5.40;3.10;;;;;;;;;;5093214;28;20453;-77
2022/05/16 01:53:18;;;;;;;8.43;3.13;;;;;;;;;;5092580;28;20752;-77
2022/05/16 01:55:44;;;;;;;10.27;3.70;;;;;;;;;;5092740;28;20510;-77
2022/05/16 01:58:10;;;;;;;4.13;3.33;;;;;;;;;;5091952;28;20418;-77
2022/05/16 02:00:37;;;;;;;4.50;3.10;;;;;;;;;;5091690;28;20413;-77
2022/05/16 02:03:05;;;;;;;5.77;2.93;;;;;;;;;;5091189;28;20430;-77
2022/05/16 02:05:32;;;;;;;5.90;3.10;;;;;;;;;;5092532;28;20451;-77
2022/05/16 02:07:58;;;;;;;4.53;2.63;;;;;;;;;;5092738;28;20438;-77
2022/05/16 02:10:25;;;;;;;5.57;3.33;;;;;;;;;;5092703;28;20441;-78
2022/05/16 02:12:52;;;;;;;5.30;3.53;;;;;;;;;;5092745;28;20764;-77
2022/05/16 02:15:21;;;;;;;5.47;3.07;;;;;;;;;;5091210;28;20961;-77
2022/05/16 02:17:46;;;;;;;4.67;3.27;;;;;;;;;;5092488;28;20819;-77
2022/05/16 02:20:13;;;;;;;5.73;2.77;;;;;;;;;;5091292;28;20465;-77
2022/05/16 02:25:24;;;;;;;5.80;3.40;;;;;;;;;;5092473;28;20493;-77
2022/05/16 02:27:51;;;;;;;5.63;3.43;;;;;;;;;;5093711;28;20472;-77
2022/05/16 02:30:17;;;;;;;5.77;3.00;;;;;;;;;;5096721;28;20413;-76
2022/05/16 02:32:43;;;;;;;6.43;3.33;;;;;;;;;;5096700;28;20545;-77
2022/05/16 02:35:10;;;;;;;6.63;4.17;;;;;;;;;;5096427;28;20819;-77
2022/05/16 02:37:36;;;;;;;8.17;3.00;;;;;;;;;;5096675;28;20824;-77
2022/05/16 02:40:02;;;;;;;3.47;3.00;;;;;;;;;;5096417;28;20414;-77
2022/05/16 02:42:28;;;;;;;8.03;3.47;;;;;;;;;;5095256;28;20461;-77
2022/05/16 02:44:54;;;;;;;5.77;3.13;;;;;;;;;;5094749;28;20933;-77
2022/05/16 02:47:22;;;;;;;6.50;3.10;;;;;;;;;;5096616;28;20487;-77
2022/05/16 02:49:48;;;;;;;7.60;3.20;;;;;;;;;;5096583;28;20406;-76
2022/05/16 02:52:14;;;;;;;8.27;3.00;;;;;;;;;;5096329;28;20402;-76
2022/05/16 02:54:40;;;;;;;6.57;3.13;;;;;;;;;;5095730;28;20492;-77
2022/05/16 02:57:07;;;;;;;5.23;3.43;;;;;;;;;;5096207;28;20389;-77
2022/05/16 02:59:33;;;;;;;5.73;3.40;;;;;;;;;;5096257;28;20382;-77
2022/05/16 03:02:06;;;;;;;7.77;3.30;;;;;;;;;;5096126;28;20397;-77
2022/05/16 03:04:33;;;;;;;9.93;3.70;;;;;;;;;;5095627;28;20954;-77
2022/05/16 03:06:59;;;;;;;5.77;2.67;;;;;;;;;;5094733;28;20506;-77
2022/05/16 03:09:26;;;;;;;4.50;3.20;;;;;;;;;;5096064;28;20385;-77
2022/05/16 03:11:52;;;;;;;4.90;3.00;;;;;;;;;;5096087;28;20456;-77
2022/05/16 03:14:19;;;;;;;6.00;3.90;;;;;;;;;;5095510;28;20474;-77
2022/05/16 03:16:45;;;;;;;7.73;3.70;;;;;;;;;;5096052;28;20386;-77
2022/05/16 03:19:12;;;;;;;3.93;3.37;;;;;;;;;;5095758;28;20444;-77
2022/05/16 03:21:38;;;;;;;4.00;3.20;;;;;;;;;;5095757;28;20476;-77
2022/05/16 03:24:04;;;;;;;7.37;3.30;;;;;;;;;;5093871;28;20830;-77
2022/05/16 03:26:30;;;;;;;6.20;3.60;;;;;;;;;;5095655;28;20411;-77
2022/05/16 03:28:56;;;;;;;2.93;2.40;;;;;;;;;;5095602;28;20386;-77
2022/05/16 03:31:22;;;;;;;4.23;3.53;;;;;;;;;;5095506;28;20817;-76
2022/05/16 03:33:48;;;;;;;6.83;3.37;;;;;;;;;;5093765;28;20440;-77
2022/05/16 03:36:14;;;;;;;7.60;4.00;;;;;;;;;;5095335;28;20488;-77
2022/05/16 03:41:25;;;;;;;5.90;3.40;;;;;;;;;;5095824;28;20396;-77
2022/05/16 03:43:52;;;;;;;7.80;4.07;;;;;;;;;;5093509;28;20501;-77
2022/05/16 03:46:18;;;;;;;9.20;3.43;;;;;;;;;;5095146;28;20385;-76
2022/05/16 03:48:45;;;;;;;5.83;3.50;;;;;;;;;;5095097;28;20429;-77
2022/05/16 03:51:12;;;;;;;9.47;3.40;;;;;;;;;;5093886;28;20411;-77
2022/05/16 03:53:47;;;;;;;10.63;3.97;;;;;;;;;;5094809;28;20414;-77
2022/05/16 03:56:24;;;;;;;8.50;3.40;;;;;;;;;;5095339;28;20414;-77
2022/05/16 03:58:50;;;;;;;5.90;3.70;;;;;;;;;;5095071;28;20471;-77
2022/05/16 04:01:16;;;;;;;8.10;3.83;;;;;;;;;;5095061;28;20460;-77
2022/05/16 04:03:43;;;;;;;5.10;3.87;;;;;;;;;;5094500;28;20401;-77
2022/05/16 04:06:09;;;;;;;7.50;4.47;;;;;;;;;;5095082;28;20374;-77
2022/05/16 04:08:35;;;;;;;11.30;4.40;;;;;;;;;;5095022;28;20407;-77
2022/05/16 04:11:02;;;;;;;6.10;3.67;;;;;;;;;;5094740;28;20407;-77
2022/05/16 04:13:28;;;;;;;6.10;3.33;;;;;;;;;;5094440;28;20422;-77
2022/05/16 04:15:54;;;;;;;4.83;3.70;;;;;;;;;;5094868;28;20835;-77
2022/05/16 04:18:20;;;;;;;7.10;4.00;;;;;;;;;;5093313;28;20389;-77
2022/05/16 04:20:46;;;;;;;5.60;3.27;;;;;;;;;;5093332;28;20501;-77
2022/05/16 04:23:13;;;;;;;9.40;3.90;;;;;;;;;;5092744;28;20418;-76
2022/05/16 04:25:39;;;;;;;6.67;3.57;;;;;;;;;;5094410;28;20519;-76
2022/05/16 04:28:06;;;;;;;5.77;3.80;;;;;;;;;;5094452;28;20561;-75
2022/05/16 04:30:32;;;;;;;4.73;3.20;;;;;;;;;;5094234;28;20402;-75
2022/05/16 04:32:58;;;;;;;8.60;3.73;;;;;;;;;;5092447;28;20786;-75
2022/05/16 04:35:25;;;;;;;6.73;3.70;;;;;;;;;;5094260;28;20466;-77
2022/05/16 04:37:51;;;;;;;5.77;4.07;;;;;;;;;;5093007;28;20409;-75
2022/05/16 04:40:17;;;;;;;5.47;4.10;;;;;;;;;;5094253;28;20501;-75
2022/05/16 04:42:46;;;;;;;6.73;3.60;;;;;;;;;;5094192;28;20419;-76
2022/05/16 04:45:14;;;;;;;4.80;3.30;;;;;;;;;;5093765;28;20562;-75
2022/05/16 04:47:41;;;;;;;7.53;3.40;;;;;;;;;;5092688;28;20468;-75
2022/05/16 04:50:08;;;;;;;8.23;3.77;;;;;;;;;;5093278;28;20941;-75
2022/05/16 04:52:34;;;;;;;9.63;4.30;;;;;;;;;;5092695;28;20441;-75
2022/05/16 04:55:00;;;;;;;6.80;3.50;;;;;;;;;;5093472;28;20438;-75
2022/05/16 04:57:26;;;;;;;6.37;3.90;;;;;;;;;;5093907;28;20765;-76
2022/05/16 04:59:53;;;;;;;6.70;4.10;;;;;;;;;;5093740;28;20411;-75
2022/05/16 05:02:19;;;;;;;6.40;4.07;;;;;;;;;;5093881;28;20384;-76
2022/05/16 05:04:45;;;;;;;9.83;4.47;;;;;;;;;;5093323;28;20551;-75
2022/05/16 05:07:12;;;;;;;7.60;4.50;;;;;;;;;;5093650;28;20743;-77
2022/05/16 05:15:12;;;;;;;7.60;4.13;;;;;;;;;;5093570;28;20429;-76
2022/05/16 05:17:38;;;;;;;7.87;4.50;;;;;;;;;;5093621;28;20539;-77
2022/05/16 05:20:06;;;;;;;8.03;4.10;;;;;;;;;;5092147;28;20411;-76
2022/05/16 05:22:32;;;;;;;7.30;4.17;;;;;;;;;;5093483;28;20413;-75
2022/05/16 05:24:58;;;;;;;8.70;4.10;;;;;;;;;;5092931;28;20462;-76
2022/05/16 05:27:24;;;;;;;9.37;4.30;;;;;;;;;;5093049;28;20403;-76
2022/05/16 05:29:52;;;;;;;6.80;4.30;;;;;;;;;;5093374;28;20377;-76
2022/05/16 05:32:18;;;;;;;5.97;3.90;;;;;;;;;;5093157;28;20433;-76
2022/05/16 05:34:44;;;;;;;9.77;4.30;;;;;;;;;;5092873;28;20426;-76
2022/05/16 05:37:10;;;;;;;7.93;4.03;;;;;;;;;;5093413;28;20417;-76
2022/05/16 05:39:38;;;;;;;5.07;4.00;;;;;;;;;;5093373;28;20410;-75
2022/05/16 05:42:04;;;;;;;11.40;4.30;;;;;;;;;;5093311;28;20561;-75
2022/05/16 05:44:30;;;;;;;10.57;3.83;;;;;;;;;;5092980;28;20462;-76
2022/05/16 05:46:56;;;;;;;7.17;4.17;;;;;;;;;;5093295;28;20418;-75
2022/05/16 05:49:22;;;;;;;8.93;3.90;;;;;;;;;;5091824;28;20407;-76
2022/05/16 05:51:48;;;;;;;11.73;4.20;;;;;;;;;;5093127;28;20661;-76
2022/05/16 05:54:14;;;;;;;7.77;3.87;;;;;;;;;;5092641;28;20432;-75
2022/05/16 05:56:40;;;;;;;5.17;3.47;;;;;;;;;;5093110;28;20415;-76
2022/05/16 05:59:06;;;;;;;7.40;3.90;;;;;;;;;;5093149;28;20441;-76
2022/05/16 06:01:32;;;;;;;6.13;3.87;;;;;;;;;;5091950;28;20414;-75
2022/05/16 06:03:58;;;;;;;7.40;3.40;;;;;;;;;;5096736;28;20462;-76
2022/05/16 06:06:25;;;;;;;9.13;4.13;;;;;;;;;;5096982;28;20443;-75
2022/05/16 06:08:51;;;;;;;8.47;4.07;;;;;;;;;;5097268;28;20402;-76
2022/05/16 06:11:17;;;;;;;7.57;3.60;;;;;;;;;;5097112;28;20455;-76
2022/05/16 06:13:43;;;;;;;7.63;3.80;;;;;;;;;;5096480;28;20787;-76
2022/05/16 06:16:09;;;;;;;11.53;4.20;;;;;;;;;;5097385;28;20812;-76
2022/05/16 06:18:35;;;;;;;14.97;4.10;;;;;;;;;;5097077;28;20410;-76
2022/05/16 06:21:01;;;;;;;6.00;3.60;;;;;;;;;;5097019;28;20879;-76
2022/05/16 06:23:27;;;;;;;6.70;3.13;;;;;;;;;;5096521;28;20403;-76
2022/05/16 06:25:54;;;;;;;6.27;3.07;;;;;;;;;;5096436;28;20878;-76
2022/05/16 06:28:24;;;;;;;5.97;2.90;;;;;;;;;;5096738;28;20410;-76
2022/05/16 06:30:51;;;;;;;4.07;3.40;;;;;;;;;;5095359;28;20406;-76
2022/05/16 06:33:18;;;;;;;6.80;3.53;;;;;;;;;;5078347;28;20456;-76
2022/05/16 06:35:44;;;;;;;6.20;3.43;;;;;;;;;;5096273;28;20423;-76
2022/05/16 06:38:15;;;;;;;5.80;3.10;;;;;;;;;;5096511;28;20406;-76
2022/05/16 06:40:42;;;;;;;5.50;2.90;;;;;;;;;;5095260;28;20396;-75
2022/05/16 06:43:09;;;;;;;6.20;3.27;;;;;;;;;;5096265;28;20407;-76
2022/05/16 06:45:35;;;;;;;5.43;2.83;;;;;;;;;;5096386;28;20446;-76
2022/05/16 06:48:02;;;;;;;10.57;3.27;;;;;;;;;;5096284;28;20745;-75
2022/05/16 06:50:29;;;;;;;4.57;3.03;;;;;;;;;;5095106;28;20494;-76
2022/05/16 06:52:55;;;;;;;9.00;3.37;;;;;;;;;;5096002;28;20414;-76
2022/05/16 06:55:21;;;;;;;3.40;2.53;;;;;;;;;;5096111;28;20426;-76
2022/05/16 06:57:47;;;;;;;5.20;3.10;;;;;;;;;;5096049;28;20394;-76
2022/05/16 07:00:13;;;;;;;5.43;3.37;;;;;;;;;;5096059;28;20419;-76
2022/05/16 07:02:40;;;;;;;3.20;2.53;;;;;;;;;;5096137;28;20426;-75
2022/05/16 07:05:06;;;;;;;2.90;2.60;;;;;;;;;;5095590;28;20553;-76
2022/05/16 07:07:33;;;;;;;6.20;3.37;;;;;;;;;;5096068;28;20410;-76
2022/05/16 07:10:00;;;;;;;5.37;2.73;;;;;;;;;;5096011;28;20418;-77
2022/05/16 07:12:26;;;;;;;5.40;2.60;;;;;;;;;;5094580;28;20418;-76
2022/05/16 07:14:52;;;;;;;9.37;2.73;;;;;;;;;;5094346;28;20465;-76
2022/05/16 07:17:18;;;;;;;5.47;3.27;;;;;;;;;;5095886;28;20490;-76
2022/05/16 07:19:46;;;;;;;4.37;2.73;;;;;;;;;;5095777;28;20414;-77
2022/05/16 07:22:14;;;;;;;6.60;3.20;;;;;;;;;;5095543;28;20877;-76
2022/05/16 07:24:40;;;;;;;4.10;2.20;;;;;;;;;;5095227;28;20462;-76
2022/05/16 07:29:51;;;;;;;8.13;3.03;;;;;;;;;;5094866;28;20770;-75
2022/05/16 07:32:17;;;;;;;4.33;2.80;;;;;;;;;;5095246;28;20419;-77
2022/05/16 07:34:43;;;;;;;5.60;2.77;;;;;;;;;;5095103;28;20437;-76
2022/05/16 07:37:09;;;;;;;5.90;3.30;;;;;;;;;;5095396;28;20463;-76
2022/05/16 07:39:36;;;;;;;7.00;2.63;;;;;;;;;;5095388;28;20844;-77
2022/05/16 07:42:03;;;;;;;7.50;2.90;;;;;;;;;;5095325;28;20775;-76
2022/05/16 07:44:29;;;;;;;5.20;3.00;;;;;;;;;;5094662;28;20844;-76
2022/05/16 07:46:55;;;;;;;3.70;2.90;;;;;;;;;;5095285;28;20402;-76
2022/05/16 07:49:22;;;;;;;4.23;2.97;;;;;;;;;;5094036;28;20407;-76
2022/05/16 07:51:48;;;;;;;5.83;3.67;;;;;;;;;;5095367;28;20419;-77
2022/05/16 07:54:14;;;;;;;9.53;3.03;;;;;;;;;;5093332;28;20531;-77
2022/05/16 07:56:41;;;;;;;6.73;3.50;;;;;;;;;;5095021;28;20449;-75
2022/05/16 07:59:09;;;;;;;8.30;3.67;;;;;;;;;;5094990;28;20470;-76
2022/05/16 08:01:35;;;;;;;8.10;4.10;;;;;;;;;;5095080;28;20483;-75
2022/05/16 08:04:01;;;;;;;5.23;3.43;;;;;;;;;;5094851;28;20462;-76
2022/05/16 08:06:28;;;;;;;10.27;3.70;;;;;;;;;;5094870;28;20494;-76
2022/05/16 08:11:39;;;;;;;6.27;4.07;;;;;;;;;;5095302;28;20832;-76
2022/05/16 08:14:05;;;;;;;8.10;4.67;;;;;;;;;;5093337;28;20419;-76
2022/05/16 08:16:31;;;;;;;8.90;4.10;;;;;;;;;;5094883;28;20891;-76
2022/05/16 08:18:57;;;;;;;6.60;4.37;;;;;;;;;;5094899;28;20407;-76
2022/05/16 08:21:23;;;;;;;6.60;3.80;;;;;;;;;;5094806;28;20407;-76
2022/05/16 08:23:49;;;;;;;10.77;3.43;;;;;;;;;;5094187;28;20786;-76
2022/05/16 08:26:15;;;;;;;5.47;3.70;;;;;;;;;;5094581;28;20540;-76
2022/05/16 08:28:42;;;;;;;5.73;3.83;;;;;;;;;;5094524;28;20490;-77
2022/05/16 08:31:08;;;;;;;9.97;4.73;;;;;;;;;;5094535;28;20426;-76
2022/05/16 08:33:34;;;;;;;10.63;4.43;;;;;;;;;;5093987;28;20427;-75
2022/05/16 08:41:32;;;;;;;7.30;3.90;;;;;;;;;;5094566;28;20476;-76
2022/05/16 08:44:08;;;;;;;7.83;3.50;;;;;;;;;;5094007;28;20459;-75
2022/05/16 08:46:36;;;;;;;11.13;4.27;;;;;;;;;;5080086;28;20415;-76
2022/05/16 08:49:08;;;;;;;7.00;3.70;;;;;;;;;;5073829;28;20770;-78
2022/05/16 08:51:36;;;;;;;7.43;3.73;;;;;;;;;;5074126;28;20399;-77
2022/05/16 08:54:05;;;;;;;3.60;3.10;;;;;;;;;;5073538;28;20493;-76
2022/05/16 08:56:32;;;;;;;5.50;3.40;;;;;;;;;;5072410;28;20789;-76
2022/05/16 08:58:58;;;;;;;3.60;3.10;;;;;;;;;;5073786;28;20423;-77
2022/05/16 09:01:31;;;;;;;8.83;3.43;;;;;;;;;;5074017;28;20420;-76
2022/05/16 09:04:01;;;;;;;9.37;2.90;;;;;;;;;;5093438;28;20458;-76
2022/05/16 09:06:32;;;;;;;5.40;3.33;;;;;;;;;;5092635;28;20403;-77
2022/05/16 09:09:13;;;;;;;8.37;3.80;;;;;;;;;;5093685;28;20465;-76
2022/05/16 09:11:42;;;;;;;6.50;3.90;;;;;;;;;;5093653;28;20411;-78
2022/05/16 09:14:14;;;;;;;5.43;3.20;;;;;;;;;;5093224;28;20495;-78
2022/05/16 09:16:40;;;;;;;5.90;2.47;;;;;;;;;;5093374;28;20425;-77
2022/05/16 09:19:17;;;;;;;3.60;2.47;;;;;;;;;;5093152;28;20850;-77
2022/05/16 09:21:56;;;;;;;6.93;3.33;;;;;;;;;;5093528;28;20410;-77
2022/05/16 09:24:25;;;;;;;5.33;3.53;;;;;;;;;;5092836;28;20957;-76
2022/05/16 09:26:57;;;;;;;5.83;3.40;;;;;;;;;;5093275;28;20407;-78
2022/05/16 09:29:28;;;;;;;6.53;3.53;;;;;;;;;;5093245;28;20398;-78
2022/05/16 09:32:00;;;;;;;3.50;2.27;;;;;;;;;;5093242;28;20419;-77
2022/05/16 09:34:26;;;;;;;6.07;2.73;;;;;;;;;;5091757;28;20492;-77
2022/05/16 09:36:52;;;;;;;3.30;2.23;;;;;;;;;;5092930;28;20808;-77
2022/05/16 09:39:24;;;;;;;7.73;3.33;;;;;;;;;;5091997;28;20460;-77
2022/05/16 09:42:13;;;;;;;5.23;2.87;;;;;;;;;;5093305;28;20407;-78
2022/05/16 09:44:57;;;;;;;3.07;2.30;;;;;;;;;;5092726;28;20461;-77
2022/05/16 09:47:29;;;;;;;5.23;3.10;;;;;;;;;;5091682;28;20411;-76
2022/05/16 09:50:05;;;;;;;6.53;3.10;;;;;;;;;;5091925;28;20407;-78
2022/05/16 09:52:36;;;;;;;7.67;2.80;;;;;;;;;;5093224;28;20391;-75
2022/05/16 09:55:05;;;;;;;5.47;2.70;;;;;;;;;;5092638;28;20419;-75
2022/05/16 09:57:32;;;;;;;5.07;2.17;;;;;;;;;;5091832;28;20936;-75
2022/05/16 10:00:15;;;;;;;4.70;2.40;;;;;;;;;;5093484;28;20822;-75
2022/05/16 10:02:42;;;;;;;5.07;3.17;;;;;;;;;;5093499;28;20402;-74
2022/05/16 10:05:20;;;;;;;5.10;2.53;;;;;;;;;;5092721;28;20905;-75
2022/05/16 10:07:48;;;;;;;5.10;2.00;;;;;;;;;;5092952;28;20403;-74
2022/05/16 10:10:19;;;;;;;4.17;2.30;;;;;;;;;;5092906;28;20413;-74
2022/05/16 10:12:45;;;;;;;5.07;2.73;;;;;;;;;;5092904;28;20487;-75
2022/05/16 10:15:12;;;;;;;4.37;2.17;;;;;;;;;;5092447;28;20434;-74
2022/05/16 10:17:40;;;;;;;5.83;2.20;;;;;;;;;;5092995;28;20418;-75
2022/05/16 10:20:27;;;;;;;4.33;2.03;;;;;;;;;;5092784;28;20501;-74
2022/05/16 10:22:56;;;;;;;7.23;2.40;;;;;;;;;;5078866;28;20927;-75
2022/05/16 10:25:23;;;;;;;5.50;2.27;;;;;;;;;;5092655;28;20551;-74
2022/05/16 10:27:51;;;;;;;6.47;2.90;;;;;;;;;;5090053;28;20415;-74
2022/05/16 10:30:22;;;;;;;4.13;2.60;;;;;;;;;;5072427;28;20553;-74
2022/05/16 10:35:38;;;;;;;5.90;2.70;;;;;;;;;;5072457;28;20491;-75
2022/05/16 10:38:15;;;;;;;9.40;2.77;;;;;;;;;;5070930;28;20496;-74
2022/05/16 10:40:42;;;;;;;4.97;2.67;;;;;;;;;;5072289;28;20727;-74
2022/05/16 10:43:26;;;;;;;4.27;2.77;;;;;;;;;;5071879;28;20777;-74
2022/05/16 10:45:55;;;;;;;4.87;3.00;;;;;;;;;;5072040;28;20954;-74
2022/05/16 10:48:30;;;;;;;11.00;2.90;;;;;;;;;;5073670;28;20552;-74
2022/05/16 10:51:08;;;;;;;5.40;3.30;;;;;;;;;;5076065;28;20411;-74
2022/05/16 10:53:38;;;;;;;8.33;2.60;;;;;;;;;;5075442;28;20886;-74
2022/05/16 10:56:04;;;;;;;9.60;3.10;;;;;;;;;;5075905;28;20485;-74
2022/05/16 10:58:51;;;;;;;6.83;2.53;;;;;;;;;;5075736;28;20408;-74
2022/05/16 11:01:36;;;;;;;9.67;3.20;;;;;;;;;;5075799;28;20877;-74
2022/05/16 11:04:02;;;;;;;11.57;3.17;;;;;;;;;;5074060;28;20456;-75
2022/05/16 11:06:51;;;;;;;12.83;3.50;;;;;;;;;;5075564;28;20415;-76
2022/05/16 11:09:24;;;;;;;11.30;3.13;;;;;;;;;;5056450;28;20408;-77
2022/05/16 11:12:13;;;;;;;16.33;3.60;;;;;;;;;;5075573;28;20762;-76
2022/05/16 11:14:48;;;;;;;9.30;2.67;;;;;;;;;;5069734;28;20443;-78
2022/05/16 11:17:32;;;;;;;11.03;3.40;;;;;;;;;;5074401;28;20477;-78
2022/05/16 11:20:08;;;;;;;8.73;2.53;;;;;;;;;;5074410;28;20586;-77
2022/05/16 11:22:42;;;;;;;6.87;3.40;;;;;;;;;;5075407;28;20418;-76
2022/05/16 11:25:08;;;;;;;5.43;2.67;;;;;;;;;;5074996;28;20463;-77
2022/05/16 11:27:34;;;;;;;4.20;2.70;;;;;;;;;;5075361;28;20874;-78
2022/05/16 11:30:06;;;;;;;5.80;2.60;;;;;;;;;;5075495;28;20493;-77
2022/05/16 11:32:43;;;;;;;7.87;3.27;;;;;;;;;;5075136;28;20426;-76
2022/05/16 11:35:18;;;;;;;7.93;2.73;;;;;;;;;;5075195;28;20447;-77
2022/05/16 11:37:53;;;;;;;6.03;3.00;;;;;;;;;;5075271;28;20453;-76
2022/05/16 11:40:22;;;;;;;5.97;2.80;;;;;;;;;;5075111;28;20411;-79
2022/05/16 11:43:07;;;;;;;5.00;3.40;;;;;;;;;;5075171;28;20418;-77
2022/05/16 11:45:52;;;;;;;7.77;3.10;;;;;;;;;;5074995;28;20808;-78
2022/05/16 11:48:19;;;;;;;5.53;3.10;;;;;;;;;;5074691;28;20489;-78
2022/05/16 11:50:52;;;;;;;9.33;3.23;;;;;;;;;;5074837;28;20401;-76
2022/05/16 11:53:27;;;;;;;9.60;3.77;;;;;;;;;;5074510;28;20438;-76
2022/05/16 12:01:30;;;;;;;6.40;3.90;;;;;;;;;;5074688;28;20412;-79
2022/05/16 12:04:05;;;;;;;10.57;3.40;;;;;;;;;;5074192;28;20427;-77
2022/05/16 12:06:35;;;;;;;7.63;3.77;;;;;;;;;;5074412;28;20410;-78
2022/05/16 12:09:20;;;;;;;7.23;3.13;;;;;;;;;;5074684;28;20418;-77
2022/05/16 12:11:51;;;;;;;5.67;3.57;;;;;;;;;;5074482;28;20526;-78
2022/05/16 12:14:26;;;;;;;5.80;4.00;;;;;;;;;;5072639;28;20844;-78
2022/05/16 12:16:57;;;;;;;5.27;3.60;;;;;;;;;;5073107;28;20778;-78
2022/05/16 12:19:29;;;;;;;8.70;4.43;;;;;;;;;;5074359;28;20415;-79
2022/05/16 12:21:59;;;;;;;7.50;4.40;;;;;;;;;;5074425;28;20456;-79
2022/05/16 12:24:25;;;;;;;11.40;4.37;;;;;;;;;;5072424;28;20466;-77
2022/05/16 12:27:03;;;;;;;13.77;6.40;;;;;;;;;;5072897;28;20771;-78
2022/05/16 12:29:32;;;;;;;12.07;7.33;;;;;;;;;;5074034;28;20416;-79
2022/05/16 12:31:58;;;;;;;12.80;7.40;;;;;;;;;;5074029;28;20420;-77
2022/05/16 12:34:30;;;;;;;18.17;7.53;;;;;;;;;;5072428;28;20435;-76
2022/05/16 12:36:57;;;;;;;14.93;7.50;;;;;;;;;;5073939;28;20552;-79
2022/05/16 12:39:31;;;;;;;27.43;7.33;;;;;;;;;;5073969;28;20889;-76
2022/05/16 12:42:00;;;;;;;16.83;6.47;;;;;;;;;;5073794;28;20407;-78
2022/05/16 12:44:41;;;;;;;10.40;6.70;;;;;;;;;;5073243;28;20459;-76
2022/05/16 12:47:07;;;;;;;13.50;6.90;;;;;;;;;;5073724;28;20404;-76
2022/05/16 12:49:57;;;;;;;12.67;6.33;;;;;;;;;;5073716;28;20787;-76
2022/05/16 12:52:40;;;;;;;16.40;7.80;;;;;;;;;;5067258;28;20419;-77
2022/05/16 12:55:25;;;;;;;12.17;6.33;;;;;;;;;;5073406;28;20438;-78
2022/05/16 12:57:54;;;;;;;7.47;6.70;;;;;;;;;;5073524;28;20412;-77
2022/05/16 13:00:25;;;;;;;11.87;6.83;;;;;;;;;;5073505;28;20989;-77
2022/05/16 13:03:09;;;;;;;12.40;6.90;;;;;;;;;;5073522;28;20490;-77
2022/05/16 13:05:45;;;;;;;9.17;7.03;;;;;;;;;;5073278;28;20459;-77
2022/05/16 13:08:30;;;;;;;8.90;6.70;;;;;;;;;;5073189;28;20403;-78
2022/05/16 13:11:14;;;;;;;17.30;6.77;;;;;;;;;;5072980;28;20429;-78
2022/05/16 13:13:43;;;;;;;7.70;6.83;;;;;;;;;;5071840;28;20424;-80
2022/05/16 13:16:12;;;;;;;8.83;7.13;;;;;;;;;;5073210;28;20876;-78
2022/05/16 13:18:44;;;;;;;8.93;6.50;;;;;;;;;;5073232;28;20404;-78
2022/05/16 13:21:13;;;;;;;7.00;5.80;;;;;;;;;;5073136;28;20446;-77
2022/05/16 13:23:39;;;;;;;12.47;6.57;;;;;;;;;;5072947;28;20454;-77
2022/05/16 13:31:44;;;;;;;9.73;6.80;;;;;;;;;;5073024;28;20469;-78
2022/05/16 13:34:12;;;;;;;7.50;5.10;;;;;;;;;;5072380;28;20431;-78
2022/05/16 13:36:39;;;;;;;7.93;5.63;;;;;;;;;;5072916;28;20439;-78
2022/05/16 13:39:11;;;;;;;8.23;5.90;;;;;;;;;;5072823;28;20445;-77
2022/05/16 13:41:37;;;;;;;11.80;5.83;;;;;;;;;;5071604;28;20416;-77
2022/05/16 13:44:04;;;;;;;9.43;6.43;;;;;;;;;;5072300;28;20435;-77
2022/05/16 13:46:31;;;;;;;8.87;5.87;;;;;;;;;;5072747;28;20426;-76
2022/05/16 13:49:04;;;;;;;13.33;6.73;;;;;;;;;;5072587;28;20411;-77
2022/05/16 13:51:30;;;;;;;13.10;6.47;;;;;;;;;;5071455;28;20495;-77
2022/05/16 13:53:57;;;;;;;9.90;5.30;;;;;;;;;;5072302;28;20470;-78
2022/05/16 13:56:36;;;;;;;6.43;5.13;;;;;;;;;;5071370;28;20908;-77
2022/05/16 13:59:02;;;;;;;10.67;5.90;;;;;;;;;;5072670;28;20407;-77
2022/05/16 14:01:28;;;;;;;7.17;5.27;;;;;;;;;;5072437;28;20443;-79
2022/05/16 14:03:56;;;;;;;10.53;5.00;;;;;;;;;;5072472;28;20434;-77
2022/05/16 14:06:30;;;;;;;10.13;5.90;;;;;;;;;;5072454;28;20767;-79
2022/05/16 14:09:02;;;;;;;8.37;4.50;;;;;;;;;;5072784;28;20418;-78
2022/05/16 14:11:28;;;;;;;6.60;4.87;;;;;;;;;;5072823;28;20411;-77
2022/05/16 14:13:55;;;;;;;14.33;5.00;;;;;;;;;;5086886;28;20450;-79
2022/05/16 14:16:24;;;;;;;8.60;4.90;;;;;;;;;;5092969;28;20431;-79
2022/05/16 14:18:51;;;;;;;8.30;5.70;;;;;;;;;;5093015;28;20717;-78
2022/05/16 14:21:19;;;;;;;7.90;4.20;;;;;;;;;;5091644;28;20414;-79
2022/05/16 14:23:59;;;;;;;7.53;4.17;;;;;;;;;;5094666;28;20462;-78
2022/05/16 14:26:25;;;;;;;10.83;4.60;;;;;;;;;;5096904;28;20479;-79
2022/05/16 14:28:52;;;;;;;6.10;4.30;;;;;;;;;;5096885;28;20415;-77
2022/05/16 14:31:26;;;;;;;4.00;3.70;;;;;;;;;;5096603;28;20418;-78
2022/05/16 14:33:57;;;;;;;7.60;4.93;;;;;;;;;;5096313;28;20457;-79
2022/05/16 14:36:33;;;;;;;6.10;3.60;;;;;;;;;;5095415;28;20984;-80
2022/05/16 14:39:05;;;;;;;5.13;3.80;;;;;;;;;;5096499;28;20771;-79
2022/05/16 14:41:31;;;;;;;6.83;4.47;;;;;;;;;;5096338;28;20741;-78
2022/05/16 14:44:05;;;;;;;8.07;4.87;;;;;;;;;;5094636;28;20528;-79
2022/05/16 14:46:44;;;;;;;4.67;4.17;;;;;;;;;;5096328;28;20408;-79
2022/05/16 14:49:14;;;;;;;8.50;5.60;;;;;;;;;;5096198;28;20403;-79
2022/05/16 14:51:42;;;;;;;6.40;4.73;;;;;;;;;;5094730;28;20468;-78
2022/05/16 14:54:32;;;;;;;10.27;4.80;;;;;;;;;;5095784;28;20775;-78
2022/05/16 14:56:58;;;;;;;6.90;4.30;;;;;;;;;;5096073;28;20801;-78
2022/05/16 14:59:24;;;;;;;8.40;5.40;;;;;;;;;;5095952;28;20422;-79
2022/05/16 15:04:34;;;;;;;7.07;5.10;;;;;;;;;;5095757;28;21042;-79
2022/05/16 15:07:01;;;;;;;6.83;3.83;;;;;;;;;;5095796;28;20414;-78
2022/05/16 15:09:29;;;;;;;6.80;4.80;;;;;;;;;;5094818;28;20772;-80
2022/05/16 15:12:04;;;;;;;8.80;5.00;;;;;;;;;;5095753;28;20532;-78
2022/05/16 15:14:31;;;;;;;9.00;5.20;;;;;;;;;;5095513;28;20430;-79
2022/05/16 15:16:57;;;;;;;6.90;4.60;;;;;;;;;;5095932;28;20412;-79
2022/05/16 15:19:24;;;;;;;10.70;5.30;;;;;;;;;;5095912;28;20419;-80
2022/05/16 15:21:51;;;;;;;4.97;4.50;;;;;;;;;;5095762;28;20422;-78
2022/05/16 15:24:22;;;;;;;14.13;5.40;;;;;;;;;;5095067;28;20458;-77
2022/05/16 15:26:49;;;;;;;8.50;4.27;;;;;;;;;;5095230;28;20442;-79
2022/05/16 15:29:15;;;;;;;5.30;4.80;;;;;;;;;;5095507;28;20501;-79
2022/05/16 15:31:41;;;;;;;10.90;6.30;;;;;;;;;;5095307;28;20411;-78
2022/05/16 15:34:07;;;;;;;6.70;5.43;;;;;;;;;;5094368;28;20423;-78